Delta Virtual Airport Information Service

Spokane International Airport

ICAO: KGEG Country: United States
Latitude: 47.6199 Longitude: -117.533
Latest Arrival : DAL6149961 (KSFO-KGEG) Latest Departure : DALJUMP (KGEG-KSEA)


WX CaptureLIVE
Data provided by noaa.gov | Fetched at 14:08:55

METAR : KGEG 151853Z VRB04KT 10SM CLR 28/06 A3014 RMK AO2 SLP188 T02780056

TAF : KGEG 151735Z 1518/1618 VRB04KT P6SM SKC FM161400 05007KT P6SM FEW250


Runway Data for KGEG
Data provided by openaviationdata.com

Runway ID Mag Var Hdg Length Elevation Surface ILS Freq ILS Id ILS Slope
3 18 27° 8987 ft 2371 ft Asphalt 111.9 IOLJ 3
7 18 72° 8183 ft 2371 ft Asphalt -- -- --
21 18 207° 8987 ft 2371 ft Asphalt 111.1 IGEG 3
25 18 252° 8183 ft 2371 ft Asphalt -- -- --

Spokane International Airport, United States
Use only for reference purposes



Not for navigational purposes.